KEED/EED METAR and TAF weather

Enter ICAO airport designator
Station Type Date Time Source
KEED METAR 2018/12/12 18:56 UTC NOAA

KEED 121856Z AUTO 00000KT 10SM CLR 16/02 A3009 RMK AO2 SLP175 T01610022


Station Type Date Time Source
KEED Decoded METAR 2018/12/12 18:56 UTC NOAA

NEEDLES AIRPORT, CA, United States (KEED) 34-46N 114-37W
Dec 12, 2018 - 01:56 PM EST / 2018.12.12 1856 UTC
Wind: Calm:0
Visibility: 10 mile(s):0
Sky conditions: clear
Temperature: 61.0 F (16.1 C)
Dew Point: 36.0 F (2.2 C)
Relative Humidity: 39%
Pressure (altimeter): 30.09 in. Hg (1018 hPa)
ob: KEED 121856Z AUTO 00000KT 10SM CLR 16/02 A3009 RMK AO2 SLP175 T01610022
cycle: 19

Station Type Date Time Source
KEED TAF 2018/12/12 18:42 UTC NOAA

TAF KEED 121739Z 1218/1318 VRB05KT P6SM SCT250
FM122000 36012KT P6SM FEW250
FM122200 36018G25KT P6SM FEW250
FM130400 36013KT P6SM FEW250


Example: see airport list